Time;durP1;ratioP1;P1;durP2;ratioP2;P2;SDS_P1;SDS_P2;PMS_P1;PMS_P2;Temp;Humidity;BMP_temperature;BMP_pressure;BME280_temperature;BME280_humidity;BME280_pressure;Samples;Min_cycle;Max_cycle;Signal;HPM_P1;HPM_P2
2023/01/01 00:00:12;;;;;;;276.92;205.15;;;;;;;;;;4997225;28;20037;-94
2023/01/01 00:02:38;;;;;;;428.95;341.42;;;;;;;;;;5011191;28;20044;-94
2023/01/01 00:05:05;;;;;;;478.10;389.20;;;;;;;;;;4987133;28;20513;-94
2023/01/01 00:07:31;;;;;;;349.15;260.42;;;;;;;;;;5007595;28;20041;-93
2023/01/01 00:12:44;;;;;;;416.70;341.23;;;;;;;;;;5009663;28;20038;-94
2023/01/01 00:15:10;;;;;;;409.25;338.83;;;;;;;;;;5006350;28;20374;-94
2023/01/01 00:17:36;;;;;;;381.52;291.58;;;;;;;;;;4976635;28;20066;-93
2023/01/01 00:20:03;;;;;;;293.33;221.32;;;;;;;;;;4992949;28;20033;-92
2023/01/01 00:22:31;;;;;;;287.30;227.75;;;;;;;;;;4971384;28;20057;-94
2023/01/01 00:24:58;;;;;;;352.52;267.42;;;;;;;;;;4992819;28;20060;-94
2023/01/01 00:27:26;;;;;;;334.67;248.63;;;;;;;;;;4990359;28;20045;-94
2023/01/01 00:29:52;;;;;;;362.45;270.77;;;;;;;;;;4989843;28;20041;-94
2023/01/01 00:32:18;;;;;;;387.45;298.05;;;;;;;;;;5007635;28;20045;-94
2023/01/01 00:34:44;;;;;;;427.35;340.77;;;;;;;;;;4990641;28;20030;-94
2023/01/01 00:37:11;;;;;;;384.90;300.80;;;;;;;;;;4998206;28;20037;-94
2023/01/01 00:39:37;;;;;;;418.90;344.05;;;;;;;;;;4966713;28;20037;-94
2023/01/01 00:42:03;;;;;;;433.52;355.48;;;;;;;;;;4972197;28;20060;-92
2023/01/01 00:44:34;;;;;;;425.05;336.67;;;;;;;;;;4988276;28;20037;-94
2023/01/01 00:47:02;;;;;;;409.42;316.17;;;;;;;;;;4982497;28;20045;-94
2023/01/01 00:49:28;;;;;;;411.98;326.63;;;;;;;;;;5006350;28;20048;-94
2023/01/01 00:51:57;;;;;;;403.08;314.70;;;;;;;;;;4987594;28;20040;-92
2023/01/01 00:54:23;;;;;;;439.63;351.80;;;;;;;;;;5010557;28;20059;-94
2023/01/01 00:56:49;;;;;;;393.60;308.55;;;;;;;;;;5008820;28;20532;-94
2023/01/01 00:59:15;;;;;;;375.48;292.13;;;;;;;;;;4981406;28;20041;-94
2023/01/01 01:01:41;;;;;;;373.75;294.48;;;;;;;;;;4985937;28;20041;-93
2023/01/01 01:04:08;;;;;;;432.30;343.85;;;;;;;;;;4982672;28;20040;-94
2023/01/01 01:06:34;;;;;;;383.73;291.60;;;;;;;;;;4987616;28;20616;-93
2023/01/01 01:09:00;;;;;;;389.92;305.35;;;;;;;;;;4995784;28;20034;-94
2023/01/01 01:11:26;;;;;;;387.67;292.77;;;;;;;;;;4971485;28;20045;-94
2023/01/01 01:13:55;;;;;;;372.40;291.65;;;;;;;;;;4993671;28;20044;-93
2023/01/01 01:16:22;;;;;;;375.30;287.55;;;;;;;;;;5004459;28;20041;-94
2023/01/01 01:18:50;;;;;;;394.65;305.52;;;;;;;;;;4977991;28;20045;-95
2023/01/01 01:21:18;;;;;;;393.17;297.83;;;;;;;;;;5008275;28;20033;-94
2023/01/01 01:23:44;;;;;;;382.75;288.80;;;;;;;;;;5001040;28;20037;-94
2023/01/01 01:26:13;;;;;;;393.25;299.23;;;;;;;;;;4985404;28;20055;-93
2023/01/01 01:28:42;;;;;;;393.83;303.85;;;;;;;;;;4996289;28;20044;-93
2023/01/01 01:31:09;;;;;;;376.42;280.38;;;;;;;;;;4995819;28;20038;-94
2023/01/01 01:33:35;;;;;;;378.27;279.85;;;;;;;;;;4974247;28;20029;-94
2023/01/01 01:36:02;;;;;;;347.52;268.08;;;;;;;;;;5010152;28;20033;-93
2023/01/01 01:38:30;;;;;;;437.38;333.08;;;;;;;;;;4988294;28;20041;-94
2023/01/01 01:40:57;;;;;;;426.50;326.15;;;;;;;;;;4997259;28;20495;-94
2023/01/01 01:43:49;;;;;;;412.10;301.05;;;;;;;;;;4992083;28;20042;-94
2023/01/01 01:46:21;;;;;;;387.15;290.92;;;;;;;;;;5002495;28;20046;-92
2023/01/01 01:48:51;;;;;;;352.90;262.38;;;;;;;;;;4990189;28;20038;-92
2023/01/01 01:51:20;;;;;;;287.85;194.07;;;;;;;;;;4990816;28;20495;-93
2023/01/01 01:53:53;;;;;;;318.30;233.15;;;;;;;;;;4984146;28;20037;-94
2023/01/01 01:56:24;;;;;;;328.07;248.00;;;;;;;;;;4983298;28;20048;-94
2023/01/01 01:58:50;;;;;;;281.08;212.25;;;;;;;;;;4974458;28;20292;-92
2023/01/01 02:01:17;;;;;;;264.58;196.70;;;;;;;;;;4981663;28;20037;-94
2023/01/01 02:03:45;;;;;;;323.67;244.75;;;;;;;;;;5008314;28;20033;-93
2023/01/01 02:06:12;;;;;;;295.83;224.23;;;;;;;;;;4998508;28;20045;-93
2023/01/01 02:08:38;;;;;;;299.35;224.52;;;;;;;;;;4986562;28;20041;-94
2023/01/01 02:11:04;;;;;;;285.33;210.50;;;;;;;;;;4996177;28;20040;-94
2023/01/01 02:13:31;;;;;;;267.10;191.75;;;;;;;;;;4988926;28;20038;-94
2023/01/01 02:16:08;;;;;;;278.65;216.48;;;;;;;;;;4995438;28;20045;-93
2023/01/01 02:18:42;;;;;;;283.35;206.93;;;;;;;;;;5001509;28;20045;-95
2023/01/01 02:21:12;;;;;;;;;;;;;;;;;;5014839;28;20037;-94
2023/01/01 02:24:25;;;;;;;297.48;220.23;;;;;;;;;;4962315;28;19920;-93
2023/01/01 02:27:09;;;;;;;293.88;219.98;;;;;;;;;;4918118;29;20732;-92
2023/01/01 02:29:44;;;;;;;262.33;198.98;;;;;;;;;;4931741;28;20074;-92
2023/01/01 02:32:23;;;;;;;286.42;206.85;;;;;;;;;;4955818;28;20061;-92
2023/01/01 02:37:51;;;;;;;258.50;193.43;;;;;;;;;;5004491;28;20045;-91
2023/01/01 02:40:17;;;;;;;281.25;217.45;;;;;;;;;;4990472;28;20044;-92
2023/01/01 02:42:44;;;;;;;252.30;196.25;;;;;;;;;;4991025;28;20041;-94
2023/01/01 02:45:10;;;;;;;220.57;164.05;;;;;;;;;;4995182;28;20045;-94
2023/01/01 02:47:37;;;;;;;215.30;158.52;;;;;;;;;;4978846;28;20045;-93
2023/01/01 02:50:32;;;;;;;223.95;161.85;;;;;;;;;;5016524;28;20038;-93
2023/01/01 02:53:02;;;;;;;204.02;152.57;;;;;;;;;;5004337;28;20049;-92
2023/01/01 02:55:46;;;;;;;207.35;157.32;;;;;;;;;;4994051;28;20040;-94
2023/01/01 03:01:28;;;;;;;214.45;152.27;;;;;;;;;;5009966;28;20646;-92
2023/01/01 03:04:05;;;;;;;209.55;152.25;;;;;;;;;;5007390;28;20064;-91
2023/01/01 03:06:44;;;;;;;209.57;163.50;;;;;;;;;;4990643;28;20045;-93
2023/01/01 03:09:27;;;;;;;217.15;158.13;;;;;;;;;;5001591;28;20033;-94
2023/01/01 03:11:58;;;;;;;206.38;155.20;;;;;;;;;;4981351;28;20041;-94
2023/01/01 03:14:30;;;;;;;224.52;153.65;;;;;;;;;;4983502;28;20045;-92
2023/01/01 03:17:04;;;;;;;194.50;146.05;;;;;;;;;;5014110;28;20514;-91
2023/01/01 03:19:36;;;;;;;193.82;141.57;;;;;;;;;;5037011;28;20048;-92
2023/01/01 03:22:11;;;;;;;206.48;157.30;;;;;;;;;;4977036;28;20030;-92
2023/01/01 03:24:42;;;;;;;216.27;153.23;;;;;;;;;;4993366;28;20052;-91
2023/01/01 03:27:14;;;;;;;213.67;153.90;;;;;;;;;;4991497;28;20038;-94
2023/01/01 03:29:45;;;;;;;198.13;144.18;;;;;;;;;;5005669;28;20041;-91
2023/01/01 03:32:18;;;;;;;192.95;141.43;;;;;;;;;;5010352;28;20037;-91
2023/01/01 03:34:50;;;;;;;210.97;149.73;;;;;;;;;;4976874;28;20033;-92
2023/01/01 03:37:22;;;;;;;185.80;141.23;;;;;;;;;;4985685;28;20296;-92
2023/01/01 03:39:51;;;;;;;198.02;141.15;;;;;;;;;;5007402;28;20042;-94
2023/01/01 03:42:37;;;;;;;191.00;136.25;;;;;;;;;;5012344;28;20033;-94
2023/01/01 03:45:14;;;;;;;195.45;133.93;;;;;;;;;;4979616;28;20069;-93
2023/01/01 03:47:41;;;;;;;159.07;120.60;;;;;;;;;;4990333;28;20041;-92
2023/01/01 03:50:10;;;;;;;193.23;138.43;;;;;;;;;;4989460;28;20518;-92
2023/01/01 03:53:15;;;;;;;181.63;138.45;;;;;;;;;;4987437;28;20051;-92
2023/01/01 03:55:47;;;;;;;186.88;129.77;;;;;;;;;;4978141;28;20056;-94
2023/01/01 03:58:24;;;;;;;162.32;125.57;;;;;;;;;;5001096;28;20030;-93
2023/01/01 04:00:55;;;;;;;164.80;122.75;;;;;;;;;;4986664;28;20042;-92
2023/01/01 04:03:23;;;;;;;177.27;133.52;;;;;;;;;;5014644;28;20033;-92
2023/01/01 04:05:52;;;;;;;202.90;143.07;;;;;;;;;;4974961;28;20045;-93
2023/01/01 04:08:20;;;;;;;177.25;128.57;;;;;;;;;;4997200;28;20044;-93
2023/01/01 04:10:54;;;;;;;171.00;122.95;;;;;;;;;;4977248;28;20105;-92
2023/01/01 04:13:23;;;;;;;178.63;129.45;;;;;;;;;;4995431;28;20128;-92
2023/01/01 04:15:50;;;;;;;176.48;126.15;;;;;;;;;;4989343;28;20045;-93
2023/01/01 04:18:20;;;;;;;150.07;107.30;;;;;;;;;;4991712;28;20521;-92
2023/01/01 04:20:47;;;;;;;160.63;113.00;;;;;;;;;;5000110;28;20049;-92
2023/01/01 04:23:13;;;;;;;171.23;125.95;;;;;;;;;;4992303;28;20037;-93
2023/01/01 04:25:39;;;;;;;171.80;120.75;;;;;;;;;;4992502;28;20041;-93
2023/01/01 04:28:07;;;;;;;151.27;112.88;;;;;;;;;;4978818;28;20041;-93
2023/01/01 04:30:35;;;;;;;157.13;109.43;;;;;;;;;;5006176;28;20042;-93
2023/01/01 04:33:02;;;;;;;131.93;101.00;;;;;;;;;;4978691;28;20030;-93
2023/01/01 04:35:30;;;;;;;158.35;117.95;;;;;;;;;;4996622;28;20524;-92
2023/01/01 04:37:57;;;;;;;145.95;108.93;;;;;;;;;;4996583;28;20044;-92
2023/01/01 04:40:25;;;;;;;153.70;113.07;;;;;;;;;;4983461;28;20045;-92
2023/01/01 04:42:52;;;;;;;162.07;112.70;;;;;;;;;;4987546;28;20056;-92
2023/01/01 04:45:19;;;;;;;138.43;104.85;;;;;;;;;;4999157;28;20037;-92
2023/01/01 04:47:47;;;;;;;142.35;104.85;;;;;;;;;;4975719;28;20041;-92
2023/01/01 04:50:13;;;;;;;159.48;113.00;;;;;;;;;;5010704;28;20498;-92
2023/01/01 04:52:41;;;;;;;157.98;108.03;;;;;;;;;;4989291;28;20046;-92
2023/01/01 04:55:08;;;;;;;136.52;101.00;;;;;;;;;;5004338;28;20029;-93
2023/01/01 04:57:34;;;;;;;144.43;103.60;;;;;;;;;;4996294;28;20048;-92
2023/01/01 05:00:01;;;;;;;121.63;85.30;;;;;;;;;;4994734;28;20034;-93
2023/01/01 05:02:27;;;;;;;137.60;101.53;;;;;;;;;;4979005;28;20526;-93
2023/01/01 05:04:53;;;;;;;139.60;101.43;;;;;;;;;;4976371;28;20048;-92
2023/01/01 05:07:19;;;;;;;142.80;99.72;;;;;;;;;;4983274;28;20037;-92
2023/01/01 05:09:45;;;;;;;126.38;96.57;;;;;;;;;;4994464;28;20045;-92
2023/01/01 05:12:11;;;;;;;122.88;97.15;;;;;;;;;;5013496;28;20056;-93
2023/01/01 05:14:37;;;;;;;129.70;93.18;;;;;;;;;;5008278;28;20033;-93
2023/01/01 05:17:03;;;;;;;135.43;100.93;;;;;;;;;;5009378;28;20040;-93
2023/01/01 05:19:29;;;;;;;114.68;80.28;;;;;;;;;;4989984;28;20696;-93
2023/01/01 05:21:56;;;;;;;116.30;85.75;;;;;;;;;;4995990;28;20026;-92
2023/01/01 05:24:24;;;;;;;115.55;83.20;;;;;;;;;;4986273;28;20033;-93
2023/01/01 05:26:50;;;;;;;118.00;84.15;;;;;;;;;;5004039;28;20048;-92
2023/01/01 05:29:21;;;;;;;127.45;87.70;;;;;;;;;;5032446;28;20045;-93
2023/01/01 05:31:49;;;;;;;132.40;95.53;;;;;;;;;;5025268;28;20037;-92
2023/01/01 05:34:15;;;;;;;139.18;100.63;;;;;;;;;;5012337;28;20052;-92
2023/01/01 05:36:41;;;;;;;142.32;97.82;;;;;;;;;;4976168;28;20411;-92
2023/01/01 05:39:10;;;;;;;110.05;76.78;;;;;;;;;;5029519;28;20481;-93
2023/01/01 05:41:36;;;;;;;111.65;81.85;;;;;;;;;;4974062;28;20117;-93
2023/01/01 05:44:07;;;;;;;103.88;69.65;;;;;;;;;;4983449;28;20552;-93
2023/01/01 05:46:34;;;;;;;121.72;88.47;;;;;;;;;;4997027;28;20056;-93
2023/01/01 05:49:00;;;;;;;127.65;87.85;;;;;;;;;;4981140;28;20516;-93
2023/01/01 05:51:27;;;;;;;101.80;74.57;;;;;;;;;;4994867;28;20049;-93
2023/01/01 05:53:54;;;;;;;113.30;83.65;;;;;;;;;;5008935;28;20502;-93
2023/01/01 05:56:20;;;;;;;126.10;94.75;;;;;;;;;;4994406;28;21821;-93
2023/01/01 05:58:46;;;;;;;101.65;75.18;;;;;;;;;;5007189;28;20029;-93
2023/01/01 06:01:18;;;;;;;123.65;94.32;;;;;;;;;;4998200;28;20050;-93
2023/01/01 06:03:47;;;;;;;103.53;82.10;;;;;;;;;;4972388;28;20037;-93
2023/01/01 06:06:22;;;;;;;114.05;79.00;;;;;;;;;;5012177;28;20057;-93
2023/01/01 06:08:53;;;;;;;105.32;76.05;;;;;;;;;;5008543;28;20034;-93
2023/01/01 06:11:20;;;;;;;104.90;76.85;;;;;;;;;;4984487;28;20041;-93
2023/01/01 06:13:46;;;;;;;130.00;89.00;;;;;;;;;;4973480;28;20045;-93
2023/01/01 06:16:13;;;;;;;105.35;79.65;;;;;;;;;;4997241;28;20052;-93
2023/01/01 06:18:40;;;;;;;115.65;85.57;;;;;;;;;;4976373;28;20046;-93
2023/01/01 06:21:09;;;;;;;109.93;83.03;;;;;;;;;;5034027;28;20501;-92
2023/01/01 06:23:39;;;;;;;133.02;99.30;;;;;;;;;;5002132;28;20041;-93
2023/01/01 06:26:10;;;;;;;143.68;105.60;;;;;;;;;;4987137;28;20495;-93
2023/01/01 06:28:37;;;;;;;130.82;96.00;;;;;;;;;;4990411;28;20042;-93
2023/01/01 06:31:05;;;;;;;121.35;87.53;;;;;;;;;;4990907;28;20041;-93
2023/01/01 06:33:31;;;;;;;124.45;86.43;;;;;;;;;;5025075;28;20036;-92
2023/01/01 06:36:00;;;;;;;127.63;86.32;;;;;;;;;;4997598;28;20029;-93
2023/01/01 06:38:26;;;;;;;112.45;81.13;;;;;;;;;;4988159;28;20034;-93
2023/01/01 06:41:06;;;;;;;141.50;97.20;;;;;;;;;;5017626;28;20041;-93
2023/01/01 06:43:34;;;;;;;104.75;76.32;;;;;;;;;;5003825;28;20049;-93
2023/01/01 06:46:07;;;;;;;106.72;77.05;;;;;;;;;;4979316;28;20033;-93
2023/01/01 06:48:34;;;;;;;114.35;80.80;;;;;;;;;;4964698;28;20052;-93
2023/01/01 06:51:17;;;;;;;105.90;76.38;;;;;;;;;;4994541;28;20041;-93
2023/01/01 06:53:43;;;;;;;120.70;86.65;;;;;;;;;;5007692;28;20041;-93
2023/01/01 06:56:10;;;;;;;132.40;91.40;;;;;;;;;;4997428;28;20034;-93
2023/01/01 06:58:36;;;;;;;116.88;83.55;;;;;;;;;;5003910;28;20042;-93
2023/01/01 07:01:26;;;;;;;105.03;84.65;;;;;;;;;;5002209;28;20036;-93
2023/01/01 07:03:57;;;;;;;109.78;80.75;;;;;;;;;;4977122;28;20045;-93
2023/01/01 07:06:24;;;;;;;113.47;83.97;;;;;;;;;;4999453;28;20495;-93
2023/01/01 07:08:50;;;;;;;107.97;76.07;;;;;;;;;;4996959;28;20045;-93
2023/01/01 07:11:16;;;;;;;119.30;92.80;;;;;;;;;;4993665;28;20486;-93
2023/01/01 07:13:43;;;;;;;120.90;86.60;;;;;;;;;;4964836;28;20494;-93
2023/01/01 07:16:12;;;;;;;121.45;92.70;;;;;;;;;;4987230;28;20038;-93
2023/01/01 07:18:38;;;;;;;131.27;94.20;;;;;;;;;;4980164;28;20417;-93
2023/01/01 07:21:06;;;;;;;137.75;96.28;;;;;;;;;;5008332;28;20029;-94
2023/01/01 07:23:33;;;;;;;139.70;101.30;;;;;;;;;;5012136;28;20052;-91
2023/01/01 07:26:00;;;;;;;126.65;92.68;;;;;;;;;;4994981;28;20044;-92
2023/01/01 07:28:28;;;;;;;124.43;89.45;;;;;;;;;;4989267;28;20053;-91
2023/01/01 07:30:54;;;;;;;132.27;87.38;;;;;;;;;;5004231;28;20048;-90
2023/01/01 07:33:24;;;;;;;124.60;93.68;;;;;;;;;;4999601;28;20041;-90
2023/01/01 07:35:50;;;;;;;118.68;87.28;;;;;;;;;;4999407;28;20042;-91
2023/01/01 07:38:21;;;;;;;119.80;87.28;;;;;;;;;;4982646;28;20041;-91
2023/01/01 07:40:47;;;;;;;117.47;85.07;;;;;;;;;;4986173;28;20429;-91
2023/01/01 07:43:13;;;;;;;104.95;79.75;;;;;;;;;;5007259;28;20499;-92
2023/01/01 07:45:45;;;;;;;110.63;82.72;;;;;;;;;;4999479;28;20041;-91
2023/01/01 07:48:13;;;;;;;121.50;91.75;;;;;;;;;;4996786;28;20089;-92
2023/01/01 07:50:41;;;;;;;124.25;94.63;;;;;;;;;;5027818;28;20033;-91
2023/01/01 07:53:11;;;;;;;114.80;80.07;;;;;;;;;;5000591;28;20037;-92
2023/01/01 07:55:39;;;;;;;119.70;85.28;;;;;;;;;;4993449;28;20037;-91
2023/01/01 07:58:05;;;;;;;135.70;97.22;;;;;;;;;;4981397;28;20052;-92
2023/01/01 08:00:34;;;;;;;118.20;85.60;;;;;;;;;;4999387;28;20041;-91
2023/01/01 08:03:02;;;;;;;130.15;101.45;;;;;;;;;;5010159;28;20026;-91
2023/01/01 08:05:28;;;;;;;128.65;94.97;;;;;;;;;;4984160;28;20041;-91
2023/01/01 08:07:55;;;;;;;140.30;91.57;;;;;;;;;;4989633;28;20041;-91
2023/01/01 08:10:21;;;;;;;103.25;75.95;;;;;;;;;;4999705;28;20045;-91
2023/01/01 08:12:47;;;;;;;119.85;85.93;;;;;;;;;;5011146;28;20037;-91
2023/01/01 08:15:14;;;;;;;108.15;83.97;;;;;;;;;;4996340;28;20053;-91
2023/01/01 08:17:40;;;;;;;112.30;83.85;;;;;;;;;;4999711;28;20501;-92
2023/01/01 08:20:07;;;;;;;123.28;85.60;;;;;;;;;;4988161;28;20040;-91
2023/01/01 08:22:36;;;;;;;123.40;86.72;;;;;;;;;;4970202;28;20042;-91
2023/01/01 08:25:03;;;;;;;121.32;84.63;;;;;;;;;;4984576;28;20495;-91
2023/01/01 08:27:31;;;;;;;112.63;81.88;;;;;;;;;;5000452;28;20049;-91
2023/01/01 08:29:57;;;;;;;109.88;84.22;;;;;;;;;;4984725;28;20034;-91
2023/01/01 08:32:23;;;;;;;111.95;86.07;;;;;;;;;;4999201;28;20037;-91
2023/01/01 08:34:50;;;;;;;128.88;95.32;;;;;;;;;;5026760;28;20037;-91
2023/01/01 08:37:20;;;;;;;128.32;93.50;;;;;;;;;;4994245;28;20483;-91
2023/01/01 08:39:50;;;;;;;110.75;83.35;;;;;;;;;;4984532;28;20121;-92
2023/01/01 08:42:16;;;;;;;114.45;80.07;;;;;;;;;;4990461;28;20029;-92
2023/01/01 08:44:42;;;;;;;116.78;86.95;;;;;;;;;;4973589;28;20033;-93
2023/01/01 08:47:35;;;;;;;114.10;78.88;;;;;;;;;;4998868;28;20034;-90
2023/01/01 08:50:04;;;;;;;96.95;73.00;;;;;;;;;;4998718;28;20410;-91
2023/01/01 08:52:33;;;;;;;115.30;85.07;;;;;;;;;;4977469;28;20049;-92
2023/01/01 08:54:59;;;;;;;113.97;85.68;;;;;;;;;;4993091;28;20036;-92
2023/01/01 08:57:29;;;;;;;109.30;78.53;;;;;;;;;;4993843;28;20036;-91
2023/01/01 08:59:58;;;;;;;111.25;79.97;;;;;;;;;;4973778;28;20042;-91
2023/01/01 09:02:24;;;;;;;106.70;77.78;;;;;;;;;;4977984;28;20113;-91
2023/01/01 09:04:51;;;;;;;102.72;72.88;;;;;;;;;;5019380;28;20037;-92
2023/01/01 09:07:18;;;;;;;98.43;74.40;;;;;;;;;;4996673;28;20525;-91
2023/01/01 09:09:44;;;;;;;88.05;66.03;;;;;;;;;;4993279;28;20127;-91
2023/01/01 09:12:15;;;;;;;98.15;75.70;;;;;;;;;;5007142;28;20045;-90
2023/01/01 09:14:41;;;;;;;95.72;72.05;;;;;;;;;;5002442;28;20046;-91
2023/01/01 09:17:07;;;;;;;101.85;67.03;;;;;;;;;;4976996;28;20048;-92
2023/01/01 09:19:36;;;;;;;80.05;62.53;;;;;;;;;;4970574;28;20042;-91
2023/01/01 09:22:02;;;;;;;89.10;67.45;;;;;;;;;;5011506;28;20528;-92
2023/01/01 09:24:28;;;;;;;82.53;61.95;;;;;;;;;;4971539;28;20046;-91
2023/01/01 09:26:56;;;;;;;84.88;64.18;;;;;;;;;;5009057;28;20045;-92
2023/01/01 09:29:25;;;;;;;78.65;61.08;;;;;;;;;;4977724;28;20056;-92
2023/01/01 09:31:52;;;;;;;83.43;65.75;;;;;;;;;;5004220;28;20044;-92
2023/01/01 09:34:18;;;;;;;80.13;65.10;;;;;;;;;;4999985;28;20037;-92
2023/01/01 09:36:45;;;;;;;88.22;62.25;;;;;;;;;;5006555;28;20034;-92
2023/01/01 09:39:14;;;;;;;83.13;63.17;;;;;;;;;;4976180;28;20038;-92
2023/01/01 09:42:04;;;;;;;83.18;62.67;;;;;;;;;;4974884;28;20029;-91
2023/01/01 09:45:22;;;;;;;84.05;61.10;;;;;;;;;;4986136;28;20046;-92
2023/01/01 09:52:13;;;;;;;80.18;57.17;;;;;;;;;;4991127;28;20049;-80
2023/01/01 09:54:43;;;;;;;86.28;64.65;;;;;;;;;;4987748;28;20221;-80
2023/01/01 09:57:11;;;;;;;79.28;59.72;;;;;;;;;;5008342;28;20044;-80
2023/01/01 09:59:42;;;;;;;79.65;60.97;;;;;;;;;;4966614;28;20412;-80
2023/01/01 10:02:32;;;;;;;84.10;60.80;;;;;;;;;;4991831;28;20030;-80
2023/01/01 10:05:20;;;;;;;92.15;66.40;;;;;;;;;;4962367;28;20506;-79
2023/01/01 10:07:46;;;;;;;95.20;71.32;;;;;;;;;;5003249;28;20049;-79
2023/01/01 10:10:40;;;;;;;82.90;64.30;;;;;;;;;;4999054;28;20018;-81
2023/01/01 10:13:23;;;;;;;87.40;64.65;;;;;;;;;;5013148;28;20036;-80
2023/01/01 10:15:58;;;;;;;92.50;68.65;;;;;;;;;;5021033;28;20041;-81
2023/01/01 10:18:28;;;;;;;79.95;64.13;;;;;;;;;;4984751;28;20038;-81
2023/01/01 10:21:13;;;;;;;88.03;61.83;;;;;;;;;;4978854;28;20046;-80
2023/01/01 10:23:53;;;;;;;70.53;56.08;;;;;;;;;;4993671;28;20035;-81
2023/01/01 10:26:24;;;;;;;67.07;55.15;;;;;;;;;;4998885;28;20040;-80
2023/01/01 10:29:07;;;;;;;75.10;56.03;;;;;;;;;;4974521;28;20033;-80
2023/01/01 10:31:40;;;;;;;65.70;52.77;;;;;;;;;;4977481;28;20311;-80
2023/01/01 10:34:15;;;;;;;72.13;59.10;;;;;;;;;;4987499;28;20488;-80
2023/01/01 10:36:45;;;;;;;73.30;57.40;;;;;;;;;;4988377;28;20042;-80
2023/01/01 10:39:15;;;;;;;67.13;47.92;;;;;;;;;;5000931;28;20045;-80
2023/01/01 10:41:48;;;;;;;59.38;43.92;;;;;;;;;;5013748;28;20041;-80
2023/01/01 10:44:17;;;;;;;47.30;35.90;;;;;;;;;;5006577;28;20038;-80
2023/01/01 10:46:52;;;;;;;49.42;35.20;;;;;;;;;;4980884;28;20042;-81
2023/01/01 10:49:18;;;;;;;37.05;28.13;;;;;;;;;;4999143;28;20044;-80
2023/01/01 10:51:52;;;;;;;17.42;9.70;;;;;;;;;;4996441;28;20038;-81
2023/01/01 10:54:37;;;;;;;9.25;5.43;;;;;;;;;;4979836;28;20037;-80
2023/01/01 10:57:20;;;;;;;7.32;4.47;;;;;;;;;;4997326;28;20041;-81
2023/01/01 10:59:51;;;;;;;7.10;4.97;;;;;;;;;;4995437;28;20038;-81
2023/01/01 11:02:23;;;;;;;7.78;4.88;;;;;;;;;;5000355;28;20038;-81
2023/01/01 11:05:12;;;;;;;8.82;5.07;;;;;;;;;;4999422;28;20285;-81
2023/01/01 11:07:40;;;;;;;6.97;3.80;;;;;;;;;;4996976;28;20042;-81
2023/01/01 11:10:24;;;;;;;6.82;4.28;;;;;;;;;;4996120;28;20037;-81
2023/01/01 11:12:53;;;;;;;5.47;4.10;;;;;;;;;;4984282;28;20030;-81
2023/01/01 11:15:41;;;;;;;6.47;3.70;;;;;;;;;;4996072;28;20034;-81
2023/01/01 11:18:16;;;;;;;12.90;3.75;;;;;;;;;;5002937;28;20037;-81
2023/01/01 11:20:47;;;;;;;9.18;3.88;;;;;;;;;;4996275;28;20041;-80
2023/01/01 11:23:39;;;;;;;6.90;3.17;;;;;;;;;;4984624;28;20401;-81
2023/01/01 11:26:23;;;;;;;6.03;3.92;;;;;;;;;;5000065;28;20041;-81
2023/01/01 11:29:14;;;;;;;4.22;3.40;;;;;;;;;;4984908;28;20038;-80
2023/01/01 11:31:42;;;;;;;6.20;4.25;;;;;;;;;;4995338;28;20038;-80
2023/01/01 11:34:26;;;;;;;6.97;4.95;;;;;;;;;;4999267;28;20044;-80
2023/01/01 11:37:10;;;;;;;7.45;4.18;;;;;;;;;;4996557;28;20034;-80
2023/01/01 11:39:40;;;;;;;9.18;4.55;;;;;;;;;;5009851;28;20408;-81
2023/01/01 11:42:09;;;;;;;7.55;4.15;;;;;;;;;;4982091;28;20030;-81
2023/01/01 11:44:40;;;;;;;6.82;4.25;;;;;;;;;;4979701;28;20034;-81
2023/01/01 11:47:22;;;;;;;9.65;5.07;;;;;;;;;;4980839;28;20049;-81
2023/01/01 11:50:11;;;;;;;8.95;4.53;;;;;;;;;;4978010;28;20040;-81
2023/01/01 11:52:44;;;;;;;8.50;5.50;;;;;;;;;;5005830;28;20049;-81
2023/01/01 11:55:24;;;;;;;8.70;5.15;;;;;;;;;;4996193;28;20038;-81
2023/01/01 11:58:11;;;;;;;9.55;4.90;;;;;;;;;;5009841;28;20032;-81
2023/01/01 12:00:44;;;;;;;8.35;5.47;;;;;;;;;;5008972;28;20319;-81
2023/01/01 12:03:16;;;;;;;7.70;4.65;;;;;;;;;;4970396;28;20029;-81
2023/01/01 12:06:03;;;;;;;7.15;5.15;;;;;;;;;;5011295;28;20053;-81
2023/01/01 12:08:37;;;;;;;16.55;7.28;;;;;;;;;;4978996;28;20412;-81
2023/01/01 12:11:31;;;;;;;11.85;6.45;;;;;;;;;;4995567;28;20611;-81
2023/01/01 12:14:06;;;;;;;13.45;7.60;;;;;;;;;;4996302;28;20052;-81
2023/01/01 12:16:44;;;;;;;9.88;5.28;;;;;;;;;;4979537;28;20485;-81
2023/01/01 12:19:23;;;;;;;8.93;4.45;;;;;;;;;;4989484;28;20045;-81
2023/01/01 12:21:54;;;;;;;9.70;4.88;;;;;;;;;;4978228;28;20395;-81
2023/01/01 12:24:22;;;;;;;6.10;4.78;;;;;;;;;;4966037;28;20510;-82
2023/01/01 12:27:09;;;;;;;11.70;5.95;;;;;;;;;;4994109;28;20122;-81
2023/01/01 12:30:04;;;;;;;8.60;4.53;;;;;;;;;;4995223;28;20048;-81
2023/01/01 12:33:04;;;;;;;11.75;6.65;;;;;;;;;;4981526;28;20053;-81
2023/01/01 12:35:45;;;;;;;6.47;5.00;;;;;;;;;;4995644;28;20085;-81
2023/01/01 12:38:49;;;;;;;6.50;4.78;;;;;;;;;;4977567;28;20038;-81
2023/01/01 12:41:38;;;;;;;7.10;4.63;;;;;;;;;;4991518;28;20043;-81
2023/01/01 12:44:04;;;;;;;7.78;5.82;;;;;;;;;;4980392;28;20029;-81
2023/01/01 12:46:30;;;;;;;8.40;5.43;;;;;;;;;;5015942;28;20041;-82
2023/01/01 12:49:28;;;;;;;8.77;5.88;;;;;;;;;;5010499;28;20048;-82
2023/01/01 12:52:06;;;;;;;10.68;5.45;;;;;;;;;;4994358;28;20397;-82
2023/01/01 12:54:36;;;;;;;7.35;5.57;;;;;;;;;;5008309;28;20045;-82
2023/01/01 12:57:09;;;;;;;6.75;4.55;;;;;;;;;;4965101;28;20034;-82
2023/01/01 12:59:43;;;;;;;8.13;5.05;;;;;;;;;;5011579;28;20391;-82
2023/01/01 13:02:16;;;;;;;5.28;4.28;;;;;;;;;;4996171;28;20030;-82
2023/01/01 13:04:55;;;;;;;9.98;4.57;;;;;;;;;;5005864;28;20038;-82
2023/01/01 13:07:33;;;;;;;9.23;4.85;;;;;;;;;;5000098;28;20399;-82
2023/01/01 13:10:08;;;;;;;6.22;4.15;;;;;;;;;;5016577;28;20036;-82
2023/01/01 13:12:36;;;;;;;8.90;3.70;;;;;;;;;;5003307;28;20037;-82
2023/01/01 13:15:37;;;;;;;16.42;3.83;;;;;;;;;;4993904;28;20030;-82
2023/01/01 13:18:16;;;;;;;10.55;4.13;;;;;;;;;;4996103;28;20412;-82
2023/01/01 13:21:07;;;;;;;6.65;3.67;;;;;;;;;;5021492;28;20042;-82
2023/01/01 13:23:37;;;;;;;7.25;4.13;;;;;;;;;;4997037;28;20044;-82
2023/01/01 13:26:23;;;;;;;9.90;3.10;;;;;;;;;;4997100;28;20054;-82
2023/01/01 13:28:58;;;;;;;9.05;3.80;;;;;;;;;;5009691;28;20037;-82
2023/01/01 13:31:56;;;;;;;7.28;3.55;;;;;;;;;;5012353;28;20038;-82
2023/01/01 13:35:00;;;;;;;6.43;3.17;;;;;;;;;;4983047;28;20050;-82
2023/01/01 13:37:28;;;;;;;12.65;4.00;;;;;;;;;;4998297;28;20034;-82
2023/01/01 13:39:57;;;;;;;6.45;5.13;;;;;;;;;;5000991;28;20041;-82
2023/01/01 13:42:37;;;;;;;7.72;5.78;;;;;;;;;;5009854;28;20037;-82
2023/01/01 13:45:13;;;;;;;7.88;5.07;;;;;;;;;;5010458;28;20045;-82
2023/01/01 13:48:10;;;;;;;8.40;4.75;;;;;;;;;;5005731;28;20046;-82
2023/01/01 13:51:11;;;;;;;9.07;4.10;;;;;;;;;;4976509;28;20045;-82
2023/01/01 13:53:49;;;;;;;8.18;5.45;;;;;;;;;;4953807;28;20046;-82
2023/01/01 13:56:19;;;;;;;15.02;5.75;;;;;;;;;;5012049;28;20052;-82
2023/01/01 13:58:54;;;;;;;12.32;8.55;;;;;;;;;;4987253;28;20036;-82
2023/01/01 14:01:40;;;;;;;12.25;8.85;;;;;;;;;;4983302;28;20042;-82
2023/01/01 14:04:16;;;;;;;16.38;10.82;;;;;;;;;;5013915;28;20044;-82
2023/01/01 14:06:45;;;;;;;13.45;10.65;;;;;;;;;;4994505;28;20038;-82
2023/01/01 14:09:20;;;;;;;15.30;8.15;;;;;;;;;;4991189;28;20034;-83
2023/01/01 14:11:53;;;;;;;17.58;10.70;;;;;;;;;;5009310;28;20081;-83
2023/01/01 14:14:27;;;;;;;7.85;5.72;;;;;;;;;;5015378;28;20468;-82
2023/01/01 14:16:59;;;;;;;13.80;7.57;;;;;;;;;;5013664;28;20042;-82
2023/01/01 14:19:26;;;;;;;11.73;7.97;;;;;;;;;;4942977;28;20572;-83
2023/01/01 14:21:53;;;;;;;13.00;7.97;;;;;;;;;;4981637;28;20400;-82
2023/01/01 14:24:22;;;;;;;10.95;7.57;;;;;;;;;;4995196;28;20034;-82
2023/01/01 14:26:50;;;;;;;18.30;12.48;;;;;;;;;;4995896;28;20484;-82
2023/01/01 14:29:21;;;;;;;20.08;11.65;;;;;;;;;;4988084;28;20046;-82
2023/01/01 14:31:50;;;;;;;25.48;13.50;;;;;;;;;;4961186;28;20038;-81
2023/01/01 14:34:33;;;;;;;26.65;15.23;;;;;;;;;;4975895;28;20415;-81
2023/01/01 14:37:08;;;;;;;;;;;;;;;;;;4991111;28;20034;-81
2023/01/01 14:39:38;;;;;;;15.52;8.73;;;;;;;;;;5025007;28;19913;-82
2023/01/01 14:42:21;;;;;;;15.88;10.90;;;;;;;;;;4989222;28;20038;-81
2023/01/01 14:44:49;;;;;;;14.38;10.32;;;;;;;;;;4970351;28;20046;-82
2023/01/01 14:47:30;;;;;;;13.23;10.63;;;;;;;;;;4986346;28;20041;-82
2023/01/01 14:50:02;;;;;;;14.82;9.52;;;;;;;;;;4992108;28;20564;-82
2023/01/01 14:52:31;;;;;;;16.25;11.38;;;;;;;;;;4987160;28;20034;-82